sensor_id;sensor_type;location;lat;lon;timestamp;P1;durP1;ratioP1;P2;durP2;ratioP2
8652;SDS011;4364;52.426;9.424;2023-03-03T00:01:43;33.27;;;15.57;;
8652;SDS011;4364;52.426;9.424;2023-03-03T00:04:09;31.80;;;15.00;;
8652;SDS011;4364;52.426;9.424;2023-03-03T00:06:36;34.90;;;15.33;;
8652;SDS011;4364;52.426;9.424;2023-03-03T00:09:02;32.63;;;14.97;;
8652;SDS011;4364;52.426;9.424;2023-03-03T00:11:29;29.80;;;13.83;;
8652;SDS011;4364;52.426;9.424;2023-03-03T00:13:55;33.03;;;14.93;;
8652;SDS011;4364;52.426;9.424;2023-03-03T00:16:27;30.63;;;14.20;;
8652;SDS011;4364;52.426;9.424;2023-03-03T00:18:59;31.00;;;14.13;;
8652;SDS011;4364;52.426;9.424;2023-03-03T00:21:39;27.47;;;13.23;;
8652;SDS011;4364;52.426;9.424;2023-03-03T00:26:44;28.43;;;13.53;;
8652;SDS011;4364;52.426;9.424;2023-03-03T00:29:34;29.53;;;14.30;;
8652;SDS011;4364;52.426;9.424;2023-03-03T00:34:43;30.53;;;13.83;;
8652;SDS011;4364;52.426;9.424;2023-03-03T00:39:55;27.93;;;13.70;;
8652;SDS011;4364;52.426;9.424;2023-03-03T00:42:28;31.70;;;14.43;;
8652;SDS011;4364;52.426;9.424;2023-03-03T00:44:58;30.27;;;13.87;;
8652;SDS011;4364;52.426;9.424;2023-03-03T00:47:27;30.00;;;13.73;;
8652;SDS011;4364;52.426;9.424;2023-03-03T00:52:37;33.80;;;14.63;;
8652;SDS011;4364;52.426;9.424;2023-03-03T00:55:05;29.33;;;13.50;;
8652;SDS011;4364;52.426;9.424;2023-03-03T00:57:33;32.67;;;13.93;;
8652;SDS011;4364;52.426;9.424;2023-03-03T01:00:00;32.63;;;14.03;;
8652;SDS011;4364;52.426;9.424;2023-03-03T01:02:28;28.97;;;12.80;;
8652;SDS011;4364;52.426;9.424;2023-03-03T01:04:56;29.63;;;13.10;;
8652;SDS011;4364;52.426;9.424;2023-03-03T01:07:22;35.83;;;14.53;;
8652;SDS011;4364;52.426;9.424;2023-03-03T01:09:49;27.07;;;13.33;;
8652;SDS011;4364;52.426;9.424;2023-03-03T01:12:15;31.77;;;13.03;;
8652;SDS011;4364;52.426;9.424;2023-03-03T01:14:42;29.30;;;13.47;;
8652;SDS011;4364;52.426;9.424;2023-03-03T01:17:11;29.77;;;13.67;;
8652;SDS011;4364;52.426;9.424;2023-03-03T01:19:38;33.93;;;14.80;;
8652;SDS011;4364;52.426;9.424;2023-03-03T01:22:04;33.97;;;14.57;;
8652;SDS011;4364;52.426;9.424;2023-03-03T01:24:31;35.37;;;14.10;;
8652;SDS011;4364;52.426;9.424;2023-03-03T01:26:58;34.70;;;15.37;;
8652;SDS011;4364;52.426;9.424;2023-03-03T01:29:25;33.67;;;13.80;;
8652;SDS011;4364;52.426;9.424;2023-03-03T01:31:52;31.80;;;14.33;;
8652;SDS011;4364;52.426;9.424;2023-03-03T01:34:19;30.33;;;13.43;;
8652;SDS011;4364;52.426;9.424;2023-03-03T01:36:46;29.93;;;13.80;;
8652;SDS011;4364;52.426;9.424;2023-03-03T01:39:13;33.60;;;14.47;;
8652;SDS011;4364;52.426;9.424;2023-03-03T01:41:40;31.97;;;13.80;;
8652;SDS011;4364;52.426;9.424;2023-03-03T01:44:09;30.43;;;13.43;;
8652;SDS011;4364;52.426;9.424;2023-03-03T01:47:13;33.60;;;14.87;;
8652;SDS011;4364;52.426;9.424;2023-03-03T01:49:39;31.83;;;12.97;;
8652;SDS011;4364;52.426;9.424;2023-03-03T01:52:12;29.97;;;12.73;;
8652;SDS011;4364;52.426;9.424;2023-03-03T01:54:49;29.77;;;13.17;;
8652;SDS011;4364;52.426;9.424;2023-03-03T01:57:22;32.00;;;13.53;;
8652;SDS011;4364;52.426;9.424;2023-03-03T01:59:53;31.23;;;14.07;;
8652;SDS011;4364;52.426;9.424;2023-03-03T02:02:22;32.80;;;14.97;;
8652;SDS011;4364;52.426;9.424;2023-03-03T02:04:52;35.43;;;14.43;;
8652;SDS011;4364;52.426;9.424;2023-03-03T02:07:19;33.17;;;14.10;;
8652;SDS011;4364;52.426;9.424;2023-03-03T02:12:40;37.17;;;14.93;;
8652;SDS011;4364;52.426;9.424;2023-03-03T02:15:14;33.30;;;14.40;;
8652;SDS011;4364;52.426;9.424;2023-03-03T02:17:42;34.80;;;13.67;;
8652;SDS011;4364;52.426;9.424;2023-03-03T02:20:19;35.87;;;13.83;;
8652;SDS011;4364;52.426;9.424;2023-03-03T02:22:58;33.27;;;13.80;;
8652;SDS011;4364;52.426;9.424;2023-03-03T02:25:40;35.37;;;14.27;;
8652;SDS011;4364;52.426;9.424;2023-03-03T02:28:08;37.27;;;14.73;;
8652;SDS011;4364;52.426;9.424;2023-03-03T02:30:38;36.73;;;14.60;;
8652;SDS011;4364;52.426;9.424;2023-03-03T02:33:06;33.40;;;15.10;;
8652;SDS011;4364;52.426;9.424;2023-03-03T02:35:35;34.10;;;14.13;;
8652;SDS011;4364;52.426;9.424;2023-03-03T02:41:06;34.93;;;13.87;;
8652;SDS011;4364;52.426;9.424;2023-03-03T02:43:45;30.97;;;12.77;;
8652;SDS011;4364;52.426;9.424;2023-03-03T02:46:18;29.60;;;12.87;;
8652;SDS011;4364;52.426;9.424;2023-03-03T02:48:45;35.37;;;13.33;;
8652;SDS011;4364;52.426;9.424;2023-03-03T02:51:11;34.53;;;14.50;;
8652;SDS011;4364;52.426;9.424;2023-03-03T02:53:39;34.10;;;14.03;;
8652;SDS011;4364;52.426;9.424;2023-03-03T02:56:06;31.63;;;12.63;;
8652;SDS011;4364;52.426;9.424;2023-03-03T02:58:35;34.10;;;14.63;;
8652;SDS011;4364;52.426;9.424;2023-03-03T03:01:03;32.93;;;13.77;;
8652;SDS011;4364;52.426;9.424;2023-03-03T03:03:30;35.80;;;14.30;;
8652;SDS011;4364;52.426;9.424;2023-03-03T03:06:00;33.37;;;14.00;;
8652;SDS011;4364;52.426;9.424;2023-03-03T03:08:28;33.47;;;13.90;;
8652;SDS011;4364;52.426;9.424;2023-03-03T03:10:55;37.50;;;14.33;;
8652;SDS011;4364;52.426;9.424;2023-03-03T03:13:24;35.93;;;14.63;;
8652;SDS011;4364;52.426;9.424;2023-03-03T03:15:52;33.93;;;14.90;;
8652;SDS011;4364;52.426;9.424;2023-03-03T03:18:18;38.20;;;15.23;;
8652;SDS011;4364;52.426;9.424;2023-03-03T03:20:45;34.57;;;14.53;;
8652;SDS011;4364;52.426;9.424;2023-03-03T03:23:14;36.03;;;15.37;;
8652;SDS011;4364;52.426;9.424;2023-03-03T03:25:42;37.03;;;14.20;;
8652;SDS011;4364;52.426;9.424;2023-03-03T03:28:17;33.43;;;14.80;;
8652;SDS011;4364;52.426;9.424;2023-03-03T03:30:45;34.53;;;14.53;;
8652;SDS011;4364;52.426;9.424;2023-03-03T03:33:11;36.80;;;15.27;;
8652;SDS011;4364;52.426;9.424;2023-03-03T03:35:39;33.47;;;14.50;;
8652;SDS011;4364;52.426;9.424;2023-03-03T03:38:12;33.07;;;15.20;;
8652;SDS011;4364;52.426;9.424;2023-03-03T03:40:40;35.43;;;15.13;;
8652;SDS011;4364;52.426;9.424;2023-03-03T03:43:07;31.80;;;13.97;;
8652;SDS011;4364;52.426;9.424;2023-03-03T03:45:34;32.23;;;14.73;;
8652;SDS011;4364;52.426;9.424;2023-03-03T03:48:02;35.17;;;14.77;;
8652;SDS011;4364;52.426;9.424;2023-03-03T03:50:30;38.00;;;15.10;;
8652;SDS011;4364;52.426;9.424;2023-03-03T03:52:57;30.67;;;13.87;;
8652;SDS011;4364;52.426;9.424;2023-03-03T03:55:23;35.07;;;15.20;;
8652;SDS011;4364;52.426;9.424;2023-03-03T03:57:50;33.93;;;14.73;;
8652;SDS011;4364;52.426;9.424;2023-03-03T04:00:18;34.70;;;15.03;;
8652;SDS011;4364;52.426;9.424;2023-03-03T04:02:52;35.03;;;15.10;;
8652;SDS011;4364;52.426;9.424;2023-03-03T04:05:19;37.13;;;16.47;;
8652;SDS011;4364;52.426;9.424;2023-03-03T04:07:46;34.40;;;15.23;;
8652;SDS011;4364;52.426;9.424;2023-03-03T04:10:14;38.13;;;15.10;;
8652;SDS011;4364;52.426;9.424;2023-03-03T04:12:44;35.47;;;14.70;;
8652;SDS011;4364;52.426;9.424;2023-03-03T04:15:13;36.73;;;15.10;;
8652;SDS011;4364;52.426;9.424;2023-03-03T04:17:41;39.20;;;15.67;;
8652;SDS011;4364;52.426;9.424;2023-03-03T04:20:09;37.10;;;15.80;;
8652;SDS011;4364;52.426;9.424;2023-03-03T04:22:37;34.13;;;15.27;;
8652;SDS011;4364;52.426;9.424;2023-03-03T04:25:04;38.20;;;15.70;;
8652;SDS011;4364;52.426;9.424;2023-03-03T04:27:37;38.50;;;16.13;;
8652;SDS011;4364;52.426;9.424;2023-03-03T04:30:04;39.23;;;16.67;;
8652;SDS011;4364;52.426;9.424;2023-03-03T04:32:31;39.37;;;16.67;;
8652;SDS011;4364;52.426;9.424;2023-03-03T04:35:01;41.47;;;16.43;;
8652;SDS011;4364;52.426;9.424;2023-03-03T04:37:36;39.33;;;16.03;;
8652;SDS011;4364;52.426;9.424;2023-03-03T04:40:05;37.93;;;15.50;;
8652;SDS011;4364;52.426;9.424;2023-03-03T04:42:33;37.67;;;16.67;;
8652;SDS011;4364;52.426;9.424;2023-03-03T04:45:01;36.97;;;15.80;;
8652;SDS011;4364;52.426;9.424;2023-03-03T04:47:29;40.53;;;16.40;;
8652;SDS011;4364;52.426;9.424;2023-03-03T04:49:57;39.40;;;15.97;;
8652;SDS011;4364;52.426;9.424;2023-03-03T04:52:24;39.00;;;16.80;;
8652;SDS011;4364;52.426;9.424;2023-03-03T04:54:50;38.10;;;16.50;;
8652;SDS011;4364;52.426;9.424;2023-03-03T04:57:17;39.13;;;16.77;;
8652;SDS011;4364;52.426;9.424;2023-03-03T04:59:43;36.07;;;16.20;;
8652;SDS011;4364;52.426;9.424;2023-03-03T05:02:11;35.03;;;16.10;;
8652;SDS011;4364;52.426;9.424;2023-03-03T05:04:38;42.37;;;18.77;;
8652;SDS011;4364;52.426;9.424;2023-03-03T05:07:04;35.40;;;16.17;;
8652;SDS011;4364;52.426;9.424;2023-03-03T05:09:31;42.27;;;18.43;;
8652;SDS011;4364;52.426;9.424;2023-03-03T05:11:57;38.67;;;17.60;;
8652;SDS011;4364;52.426;9.424;2023-03-03T05:14:25;38.17;;;17.23;;
8652;SDS011;4364;52.426;9.424;2023-03-03T05:16:52;38.00;;;17.40;;
8652;SDS011;4364;52.426;9.424;2023-03-03T05:19:19;39.83;;;16.33;;
8652;SDS011;4364;52.426;9.424;2023-03-03T05:21:45;39.67;;;17.23;;
8652;SDS011;4364;52.426;9.424;2023-03-03T05:24:12;39.70;;;16.70;;
8652;SDS011;4364;52.426;9.424;2023-03-03T05:26:39;38.83;;;17.27;;
8652;SDS011;4364;52.426;9.424;2023-03-03T05:29:06;35.60;;;15.87;;
8652;SDS011;4364;52.426;9.424;2023-03-03T05:31:33;36.27;;;15.93;;
8652;SDS011;4364;52.426;9.424;2023-03-03T05:34:00;40.43;;;17.07;;
8652;SDS011;4364;52.426;9.424;2023-03-03T05:36:27;33.93;;;16.20;;
8652;SDS011;4364;52.426;9.424;2023-03-03T05:38:53;36.03;;;16.67;;
8652;SDS011;4364;52.426;9.424;2023-03-03T05:41:20;36.03;;;16.77;;
8652;SDS011;4364;52.426;9.424;2023-03-03T05:43:46;37.13;;;16.97;;
8652;SDS011;4364;52.426;9.424;2023-03-03T05:46:13;35.07;;;15.37;;
8652;SDS011;4364;52.426;9.424;2023-03-03T05:48:40;34.17;;;14.90;;
8652;SDS011;4364;52.426;9.424;2023-03-03T05:51:07;33.37;;;15.13;;
8652;SDS011;4364;52.426;9.424;2023-03-03T05:53:34;36.50;;;15.97;;
8652;SDS011;4364;52.426;9.424;2023-03-03T05:56:02;36.97;;;16.33;;
8652;SDS011;4364;52.426;9.424;2023-03-03T05:58:29;35.37;;;15.43;;
8652;SDS011;4364;52.426;9.424;2023-03-03T06:00:56;37.80;;;15.73;;
8652;SDS011;4364;52.426;9.424;2023-03-03T06:03:22;36.73;;;17.43;;
8652;SDS011;4364;52.426;9.424;2023-03-03T06:05:49;37.13;;;17.27;;
8652;SDS011;4364;52.426;9.424;2023-03-03T06:08:15;37.23;;;17.93;;
8652;SDS011;4364;52.426;9.424;2023-03-03T06:10:42;39.77;;;18.70;;
8652;SDS011;4364;52.426;9.424;2023-03-03T06:13:11;38.67;;;17.90;;
8652;SDS011;4364;52.426;9.424;2023-03-03T06:15:38;37.87;;;16.60;;
8652;SDS011;4364;52.426;9.424;2023-03-03T06:18:04;34.53;;;15.77;;
8652;SDS011;4364;52.426;9.424;2023-03-03T06:20:31;37.57;;;16.90;;
8652;SDS011;4364;52.426;9.424;2023-03-03T06:22:58;39.03;;;16.77;;
8652;SDS011;4364;52.426;9.424;2023-03-03T06:25:24;35.97;;;16.97;;
8652;SDS011;4364;52.426;9.424;2023-03-03T06:27:51;38.00;;;17.00;;
8652;SDS011;4364;52.426;9.424;2023-03-03T06:30:17;35.93;;;15.97;;
8652;SDS011;4364;52.426;9.424;2023-03-03T06:32:44;39.13;;;17.03;;
8652;SDS011;4364;52.426;9.424;2023-03-03T06:35:11;39.40;;;17.27;;
8652;SDS011;4364;52.426;9.424;2023-03-03T06:37:38;39.77;;;17.23;;
8652;SDS011;4364;52.426;9.424;2023-03-03T06:40:05;36.07;;;15.80;;
8652;SDS011;4364;52.426;9.424;2023-03-03T06:42:32;40.60;;;16.70;;
8652;SDS011;4364;52.426;9.424;2023-03-03T06:44:59;36.30;;;17.07;;
8652;SDS011;4364;52.426;9.424;2023-03-03T06:47:26;36.47;;;16.13;;
8652;SDS011;4364;52.426;9.424;2023-03-03T06:49:53;40.93;;;16.43;;
8652;SDS011;4364;52.426;9.424;2023-03-03T06:52:23;40.77;;;16.90;;
8652;SDS011;4364;52.426;9.424;2023-03-03T06:54:55;38.27;;;17.03;;
8652;SDS011;4364;52.426;9.424;2023-03-03T06:57:31;39.37;;;17.17;;
8652;SDS011;4364;52.426;9.424;2023-03-03T07:00:41;42.77;;;17.23;;
8652;SDS011;4364;52.426;9.424;2023-03-03T07:02:59;38.60;;;17.43;;
8652;SDS011;4364;52.426;9.424;2023-03-03T07:05:28;38.13;;;17.40;;
8652;SDS011;4364;52.426;9.424;2023-03-03T07:07:55;43.73;;;16.90;;
8652;SDS011;4364;52.426;9.424;2023-03-03T07:10:24;38.37;;;16.43;;
8652;SDS011;4364;52.426;9.424;2023-03-03T07:12:57;39.43;;;17.03;;
8652;SDS011;4364;52.426;9.424;2023-03-03T07:15:33;38.63;;;16.50;;
8652;SDS011;4364;52.426;9.424;2023-03-03T07:18:00;34.57;;;15.70;;
8652;SDS011;4364;52.426;9.424;2023-03-03T07:20:34;38.70;;;16.87;;
8652;SDS011;4364;52.426;9.424;2023-03-03T07:26:15;39.50;;;17.50;;
8652;SDS011;4364;52.426;9.424;2023-03-03T07:28:47;40.10;;;17.57;;
8652;SDS011;4364;52.426;9.424;2023-03-03T07:31:35;39.43;;;17.77;;
8652;SDS011;4364;52.426;9.424;2023-03-03T07:34:13;35.60;;;17.13;;
8652;SDS011;4364;52.426;9.424;2023-03-03T07:36:51;41.00;;;17.13;;
8652;SDS011;4364;52.426;9.424;2023-03-03T07:39:35;35.13;;;16.77;;
8652;SDS011;4364;52.426;9.424;2023-03-03T07:45:00;39.87;;;17.73;;
8652;SDS011;4364;52.426;9.424;2023-03-03T07:47:30;39.70;;;17.10;;
8652;SDS011;4364;52.426;9.424;2023-03-03T07:50:09;42.23;;;17.73;;
8652;SDS011;4364;52.426;9.424;2023-03-03T07:52:41;39.17;;;15.67;;
8652;SDS011;4364;52.426;9.424;2023-03-03T07:55:36;35.80;;;15.57;;
8652;SDS011;4364;52.426;9.424;2023-03-03T08:03:14;40.77;;;17.03;;
8652;SDS011;4364;52.426;9.424;2023-03-03T08:05:43;41.30;;;17.20;;
8652;SDS011;4364;52.426;9.424;2023-03-03T08:08:33;38.90;;;17.03;;
8652;SDS011;4364;52.426;9.424;2023-03-03T08:11:02;39.37;;;16.37;;
8652;SDS011;4364;52.426;9.424;2023-03-03T08:13:36;38.47;;;17.03;;
8652;SDS011;4364;52.426;9.424;2023-03-03T08:18:36;43.53;;;18.83;;
8652;SDS011;4364;52.426;9.424;2023-03-03T08:23:51;36.60;;;16.47;;
8652;SDS011;4364;52.426;9.424;2023-03-03T08:26:19;41.03;;;17.60;;
8652;SDS011;4364;52.426;9.424;2023-03-03T08:28:48;42.13;;;17.07;;
8652;SDS011;4364;52.426;9.424;2023-03-03T08:31:15;41.43;;;18.07;;
8652;SDS011;4364;52.426;9.424;2023-03-03T08:34:02;41.60;;;17.43;;
8652;SDS011;4364;52.426;9.424;2023-03-03T08:36:29;43.43;;;17.17;;
8652;SDS011;4364;52.426;9.424;2023-03-03T08:38:59;42.80;;;17.53;;
8652;SDS011;4364;52.426;9.424;2023-03-03T08:41:29;42.90;;;16.40;;
8652;SDS011;4364;52.426;9.424;2023-03-03T08:43:55;40.47;;;16.53;;
8652;SDS011;4364;52.426;9.424;2023-03-03T08:46:22;37.00;;;15.90;;
8652;SDS011;4364;52.426;9.424;2023-03-03T08:48:48;39.47;;;16.40;;
8652;SDS011;4364;52.426;9.424;2023-03-03T08:51:15;45.53;;;17.27;;
8652;SDS011;4364;52.426;9.424;2023-03-03T08:53:41;44.10;;;18.23;;
8652;SDS011;4364;52.426;9.424;2023-03-03T08:56:08;41.77;;;17.00;;
8652;SDS011;4364;52.426;9.424;2023-03-03T08:58:35;51.03;;;19.27;;
8652;SDS011;4364;52.426;9.424;2023-03-03T09:01:02;48.67;;;20.60;;
8652;SDS011;4364;52.426;9.424;2023-03-03T09:03:29;52.53;;;20.23;;
8652;SDS011;4364;52.426;9.424;2023-03-03T09:05:56;50.60;;;20.60;;
8652;SDS011;4364;52.426;9.424;2023-03-03T09:08:22;58.30;;;21.47;;
8652;SDS011;4364;52.426;9.424;2023-03-03T09:10:49;61.30;;;22.83;;
8652;SDS011;4364;52.426;9.424;2023-03-03T09:13:16;58.77;;;23.43;;
8652;SDS011;4364;52.426;9.424;2023-03-03T09:15:44;56.37;;;20.97;;
8652;SDS011;4364;52.426;9.424;2023-03-03T09:18:13;58.37;;;23.10;;
8652;SDS011;4364;52.426;9.424;2023-03-03T09:20:42;54.10;;;21.20;;
8652;SDS011;4364;52.426;9.424;2023-03-03T09:23:21;55.27;;;20.93;;
8652;SDS011;4364;52.426;9.424;2023-03-03T09:26:14;56.40;;;21.10;;
8652;SDS011;4364;52.426;9.424;2023-03-03T09:28:43;49.23;;;20.23;;
8652;SDS011;4364;52.426;9.424;2023-03-03T09:31:21;58.63;;;23.10;;
8652;SDS011;4364;52.426;9.424;2023-03-03T09:33:51;61.50;;;21.93;;
8652;SDS011;4364;52.426;9.424;2023-03-03T09:39:00;60.00;;;24.03;;
8652;SDS011;4364;52.426;9.424;2023-03-03T09:50:16;54.97;;;21.77;;
8652;SDS011;4364;52.426;9.424;2023-03-03T09:58:50;52.03;;;21.53;;
8652;SDS011;4364;52.426;9.424;2023-03-03T10:01:35;55.73;;;21.90;;
8652;SDS011;4364;52.426;9.424;2023-03-03T10:04:15;51.90;;;20.13;;
8652;SDS011;4364;52.426;9.424;2023-03-03T10:07:01;53.27;;;21.17;;
8652;SDS011;4364;52.426;9.424;2023-03-03T10:09:41;56.80;;;21.67;;
8652;SDS011;4364;52.426;9.424;2023-03-03T10:14:59;54.47;;;21.03;;
8652;SDS011;4364;52.426;9.424;2023-03-03T10:17:41;54.40;;;21.47;;
8652;SDS011;4364;52.426;9.424;2023-03-03T10:23:23;55.67;;;21.20;;
8652;SDS011;4364;52.426;9.424;2023-03-03T10:25:56;56.33;;;21.37;;
8652;SDS011;4364;52.426;9.424;2023-03-03T10:29:13;56.57;;;22.30;;
8652;SDS011;4364;52.426;9.424;2023-03-03T10:31:58;56.07;;;22.17;;
8652;SDS011;4364;52.426;9.424;2023-03-03T10:34:50;55.60;;;20.80;;
8652;SDS011;4364;52.426;9.424;2023-03-03T10:37:50;57.23;;;21.67;;
8652;SDS011;4364;52.426;9.424;2023-03-03T10:40:25;52.63;;;21.67;;
8652;SDS011;4364;52.426;9.424;2023-03-03T10:48:40;49.67;;;20.53;;
8652;SDS011;4364;52.426;9.424;2023-03-03T10:51:15;51.00;;;21.57;;
8652;SDS011;4364;52.426;9.424;2023-03-03T10:54:12;58.60;;;23.37;;
8652;SDS011;4364;52.426;9.424;2023-03-03T10:56:48;50.53;;;21.43;;
8652;SDS011;4364;52.426;9.424;2023-03-03T10:59:28;53.73;;;20.87;;
8652;SDS011;4364;52.426;9.424;2023-03-03T11:02:16;49.57;;;20.27;;
8652;SDS011;4364;52.426;9.424;2023-03-03T11:07:45;54.83;;;21.57;;
8652;SDS011;4364;52.426;9.424;2023-03-03T11:16:16;47.03;;;21.13;;
8652;SDS011;4364;52.426;9.424;2023-03-03T11:31:09;54.07;;;22.63;;
8652;SDS011;4364;52.426;9.424;2023-03-03T11:34:05;56.40;;;22.77;;
8652;SDS011;4364;52.426;9.424;2023-03-03T11:36:55;56.93;;;22.47;;
8652;SDS011;4364;52.426;9.424;2023-03-03T11:39:23;55.67;;;22.40;;
8652;SDS011;4364;52.426;9.424;2023-03-03T11:44:37;53.63;;;23.27;;
8652;SDS011;4364;52.426;9.424;2023-03-03T11:49:56;51.80;;;21.57;;
8652;SDS011;4364;52.426;9.424;2023-03-03T11:52:40;53.20;;;21.17;;
8652;SDS011;4364;52.426;9.424;2023-03-03T12:00:40;51.43;;;20.90;;
8652;SDS011;4364;52.426;9.424;2023-03-03T12:03:20;54.67;;;21.20;;
8652;SDS011;4364;52.426;9.424;2023-03-03T12:11:26;47.17;;;19.07;;
8652;SDS011;4364;52.426;9.424;2023-03-03T12:27:51;49.03;;;20.67;;
8652;SDS011;4364;52.426;9.424;2023-03-03T12:30:35;50.03;;;20.30;;
8652;SDS011;4364;52.426;9.424;2023-03-03T12:33:17;55.00;;;20.97;;
8652;SDS011;4364;52.426;9.424;2023-03-03T12:36:08;51.83;;;20.37;;
8652;SDS011;4364;52.426;9.424;2023-03-03T12:41:36;49.10;;;20.27;;
8652;SDS011;4364;52.426;9.424;2023-03-03T12:44:14;45.07;;;18.13;;
8652;SDS011;4364;52.426;9.424;2023-03-03T12:49:59;49.53;;;18.97;;
8652;SDS011;4364;52.426;9.424;2023-03-03T12:52:45;45.13;;;17.97;;
8652;SDS011;4364;52.426;9.424;2023-03-03T13:00:56;43.03;;;18.33;;
8652;SDS011;4364;52.426;9.424;2023-03-03T13:03:57;46.87;;;19.30;;
8652;SDS011;4364;52.426;9.424;2023-03-03T13:06:36;42.93;;;18.13;;
8652;SDS011;4364;52.426;9.424;2023-03-03T13:09:24;41.03;;;19.70;;
8652;SDS011;4364;52.426;9.424;2023-03-03T13:17:14;47.10;;;19.60;;
8652;SDS011;4364;52.426;9.424;2023-03-03T13:19:45;39.27;;;17.43;;
8652;SDS011;4364;52.426;9.424;2023-03-03T13:27:50;36.60;;;17.23;;
8652;SDS011;4364;52.426;9.424;2023-03-03T13:30:21;39.37;;;18.47;;
8652;SDS011;4364;52.426;9.424;2023-03-03T13:32:53;36.73;;;18.57;;
8652;SDS011;4364;52.426;9.424;2023-03-03T13:35:43;36.27;;;17.27;;
8652;SDS011;4364;52.426;9.424;2023-03-03T13:38:22;39.00;;;17.53;;
8652;SDS011;4364;52.426;9.424;2023-03-03T13:40:56;35.17;;;16.17;;
8652;SDS011;4364;52.426;9.424;2023-03-03T13:46:17;35.37;;;17.37;;
8652;SDS011;4364;52.426;9.424;2023-03-03T13:49:15;28.90;;;14.70;;
8652;SDS011;4364;52.426;9.424;2023-03-03T13:51:55;38.87;;;17.10;;
8652;SDS011;4364;52.426;9.424;2023-03-03T13:57:23;33.77;;;15.90;;
8652;SDS011;4364;52.426;9.424;2023-03-03T14:02:51;34.83;;;16.30;;
8652;SDS011;4364;52.426;9.424;2023-03-03T14:05:36;34.03;;;15.53;;
8652;SDS011;4364;52.426;9.424;2023-03-03T14:11:11;33.00;;;16.37;;
8652;SDS011;4364;52.426;9.424;2023-03-03T14:16:46;33.17;;;16.07;;
8652;SDS011;4364;52.426;9.424;2023-03-03T14:22:18;32.77;;;14.87;;
8652;SDS011;4364;52.426;9.424;2023-03-03T14:25:02;38.97;;;16.87;;
8652;SDS011;4364;52.426;9.424;2023-03-03T14:27:34;38.70;;;16.47;;
8652;SDS011;4364;52.426;9.424;2023-03-03T14:35:39;42.20;;;18.33;;
8652;SDS011;4364;52.426;9.424;2023-03-03T14:38:13;39.73;;;18.27;;
8652;SDS011;4364;52.426;9.424;2023-03-03T14:40:43;42.27;;;17.97;;
8652;SDS011;4364;52.426;9.424;2023-03-03T14:43:19;41.33;;;17.33;;
8652;SDS011;4364;52.426;9.424;2023-03-03T14:45:50;41.97;;;18.00;;
8652;SDS011;4364;52.426;9.424;2023-03-03T14:51:14;41.03;;;17.60;;
8652;SDS011;4364;52.426;9.424;2023-03-03T14:53:52;41.23;;;17.97;;
8652;SDS011;4364;52.426;9.424;2023-03-03T14:58:50;43.10;;;17.83;;
8652;SDS011;4364;52.426;9.424;2023-03-03T15:01:20;44.80;;;19.37;;
8652;SDS011;4364;52.426;9.424;2023-03-03T15:04:02;47.63;;;19.60;;
8652;SDS011;4364;52.426;9.424;2023-03-03T15:06:45;49.67;;;22.57;;
8652;SDS011;4364;52.426;9.424;2023-03-03T15:22:58;68.93;;;27.20;;
8652;SDS011;4364;52.426;9.424;2023-03-03T15:25:58;67.70;;;27.17;;
8652;SDS011;4364;52.426;9.424;2023-03-03T15:31:45;70.10;;;29.50;;
8652;SDS011;4364;52.426;9.424;2023-03-03T15:34:32;69.47;;;27.93;;
8652;SDS011;4364;52.426;9.424;2023-03-03T15:37:08;65.63;;;28.10;;
8652;SDS011;4364;52.426;9.424;2023-03-03T15:42:30;78.47;;;34.47;;
8652;SDS011;4364;52.426;9.424;2023-03-03T15:45:16;80.83;;;34.57;;
8652;SDS011;4364;52.426;9.424;2023-03-03T15:48:05;90.07;;;37.03;;
8652;SDS011;4364;52.426;9.424;2023-03-03T15:56:24;78.30;;;33.37;;
8652;SDS011;4364;52.426;9.424;2023-03-03T16:04:37;67.77;;;29.27;;
8652;SDS011;4364;52.426;9.424;2023-03-03T16:15:33;47.73;;;21.77;;
8652;SDS011;4364;52.426;9.424;2023-03-03T16:21:13;44.30;;;20.27;;
8652;SDS011;4364;52.426;9.424;2023-03-03T16:35:13;45.47;;;19.67;;
8652;SDS011;4364;52.426;9.424;2023-03-03T16:40:31;45.87;;;19.20;;
8652;SDS011;4364;52.426;9.424;2023-03-03T16:43:08;44.80;;;20.70;;
8652;SDS011;4364;52.426;9.424;2023-03-03T16:45:44;41.30;;;17.80;;
8652;SDS011;4364;52.426;9.424;2023-03-03T16:51:07;42.43;;;17.80;;
8652;SDS011;4364;52.426;9.424;2023-03-03T16:53:59;40.53;;;18.80;;
8652;SDS011;4364;52.426;9.424;2023-03-03T16:56:58;46.27;;;18.97;;
8652;SDS011;4364;52.426;9.424;2023-03-03T17:02:51;46.13;;;19.03;;
8652;SDS011;4364;52.426;9.424;2023-03-03T17:17:16;37.57;;;17.13;;
8652;SDS011;4364;52.426;9.424;2023-03-03T17:23:01;39.33;;;17.13;;
8652;SDS011;4364;52.426;9.424;2023-03-03T17:28:29;45.67;;;21.23;;
8652;SDS011;4364;52.426;9.424;2023-03-03T17:31:21;63.73;;;25.20;;
8652;SDS011;4364;52.426;9.424;2023-03-03T17:42:51;46.47;;;21.73;;
8652;SDS011;4364;52.426;9.424;2023-03-03T17:45:35;47.20;;;21.70;;
8652;SDS011;4364;52.426;9.424;2023-03-03T18:07:41;40.97;;;18.77;;
8652;SDS011;4364;52.426;9.424;2023-03-03T18:10:34;39.63;;;19.07;;
8652;SDS011;4364;52.426;9.424;2023-03-03T18:18:51;39.97;;;19.17;;
8652;SDS011;4364;52.426;9.424;2023-03-03T18:24:13;44.13;;;20.53;;
8652;SDS011;4364;52.426;9.424;2023-03-03T18:26:50;41.17;;;19.47;;
8652;SDS011;4364;52.426;9.424;2023-03-03T18:29:25;44.93;;;20.73;;
8652;SDS011;4364;52.426;9.424;2023-03-03T18:34:29;61.27;;;31.67;;
8652;SDS011;4364;52.426;9.424;2023-03-03T18:37:01;43.27;;;20.37;;
8652;SDS011;4364;52.426;9.424;2023-03-03T18:39:47;40.57;;;18.83;;
8652;SDS011;4364;52.426;9.424;2023-03-03T18:42:42;43.53;;;19.77;;
8652;SDS011;4364;52.426;9.424;2023-03-03T18:50:33;41.03;;;18.17;;
8652;SDS011;4364;52.426;9.424;2023-03-03T18:55:39;42.83;;;18.60;;
8652;SDS011;4364;52.426;9.424;2023-03-03T19:00:48;43.07;;;18.97;;
8652;SDS011;4364;52.426;9.424;2023-03-03T19:06:04;44.17;;;20.93;;
8652;SDS011;4364;52.426;9.424;2023-03-03T19:08:44;70.67;;;26.37;;
8652;SDS011;4364;52.426;9.424;2023-03-03T19:16:42;47.63;;;21.10;;
8652;SDS011;4364;52.426;9.424;2023-03-03T19:19:13;46.00;;;21.60;;
8652;SDS011;4364;52.426;9.424;2023-03-03T19:21:44;46.87;;;21.07;;
8652;SDS011;4364;52.426;9.424;2023-03-03T19:35:16;39.07;;;18.80;;
8652;SDS011;4364;52.426;9.424;2023-03-03T19:37:52;41.20;;;20.20;;
8652;SDS011;4364;52.426;9.424;2023-03-03T19:51:59;38.40;;;19.60;;
8652;SDS011;4364;52.426;9.424;2023-03-03T19:57:14;44.63;;;20.37;;
8652;SDS011;4364;52.426;9.424;2023-03-03T19:59:53;44.00;;;20.30;;
8652;SDS011;4364;52.426;9.424;2023-03-03T20:05:31;43.80;;;19.93;;
8652;SDS011;4364;52.426;9.424;2023-03-03T20:08:19;42.87;;;18.57;;
8652;SDS011;4364;52.426;9.424;2023-03-03T20:10:52;45.30;;;18.70;;
8652;SDS011;4364;52.426;9.424;2023-03-03T20:13:41;39.87;;;17.67;;
8652;SDS011;4364;52.426;9.424;2023-03-03T20:19:00;38.30;;;18.23;;
8652;SDS011;4364;52.426;9.424;2023-03-03T20:22:18;31.33;;;16.10;;
8652;SDS011;4364;52.426;9.424;2023-03-03T20:32:53;22.47;;;9.83;;
8652;SDS011;4364;52.426;9.424;2023-03-03T20:35:33;17.43;;;9.17;;
8652;SDS011;4364;52.426;9.424;2023-03-03T20:45:48;15.90;;;5.90;;
8652;SDS011;4364;52.426;9.424;2023-03-03T20:48:40;15.57;;;5.63;;
8652;SDS011;4364;52.426;9.424;2023-03-03T20:51:30;15.60;;;6.50;;
8652;SDS011;4364;52.426;9.424;2023-03-03T20:54:24;17.73;;;5.67;;
8652;SDS011;4364;52.426;9.424;2023-03-03T21:00:21;14.93;;;5.63;;
8652;SDS011;4364;52.426;9.424;2023-03-03T21:02:39;14.93;;;5.80;;
8652;SDS011;4364;52.426;9.424;2023-03-03T21:05:13;21.10;;;6.20;;
8652;SDS011;4364;52.426;9.424;2023-03-03T21:10:23;20.77;;;5.87;;
8652;SDS011;4364;52.426;9.424;2023-03-03T21:12:52;12.33;;;5.43;;
8652;SDS011;4364;52.426;9.424;2023-03-03T21:15:22;15.63;;;5.60;;
8652;SDS011;4364;52.426;9.424;2023-03-03T21:17:51;16.20;;;4.77;;
8652;SDS011;4364;52.426;9.424;2023-03-03T21:20:30;15.27;;;4.67;;